< < Back
Terminal Aerodrome Forecast


Current Version              Previous Versions:   1  2  3  4  5  6  7  8  9  

Terminal Aerodrome Forecast

572
FTUS42 KJAX 020000 AAA
TAFGNV
TAF AMD
KGNV 020017Z 0200/0224 VRB06KT P6SM VCTS SCT040CB SCT250
     FM020300 VRB02KT P6SM SKC
      TEMPO 0208/0211 4SM BR
     FM021800 13006KT P6SM SCT035 SCT250
     FM022000 11008KT P6SM VCTS SCT040CB BKN250
      TEMPO 0222/0224 3SM TSRA BKN035CB=

Latest METAR

072
SAUS70 KWBC 010400 RRX
MTRGNV
METAR KGNV 020353Z AUTO 00000KT 10SM CLR 24/23 A3012 RMK AO2 SLP197
T02390233 $


USA.gov is the U.S. government's official web portal to all federal, state and local government web resources and services.